Avant, Oklahoma
Current Conditions -  °F | °C
As of 2:00 AM on Tuesday 21 Oct 2014 (Local Time) from KBVO Reporting Station
Moderate Fog Moderate Fog  
Wind Chill: 49°   Ceiling: 200
Heat Index: 49°   Visibility: 0.5mi
Dew Point: 49°   Wind: 0mph
Humidity: 100%   Direction: NA
Pressure: 30.08"   Gusts: NA
Location:  36.49°N, 96.06°W
Report Text: KBVO 210700Z AUTO 00000KT 1/2SM FG VV002 09/09 A3008 RMK AO2 T00940094
Loading
Personal Weather Stations






























Interactive Weather Map
Tropical Storm Tracking
New forecast layout! Learn more

10-Day Weather Forecast

Advertisements
Track Severe Weather on mobile